sensor_id;sensor_type;location;lat;lon;timestamp;temperature;humidity
38239;DHT22;24035;48.900;9.188;2023-05-14T00:01:53;11.70;99.90
38239;DHT22;24035;48.900;9.188;2023-05-14T00:04:19;11.60;1.00
38239;DHT22;24035;48.900;9.188;2023-05-14T00:06:45;11.60;1.00
38239;DHT22;24035;48.900;9.188;2023-05-14T00:09:11;11.50;1.00
38239;DHT22;24035;48.900;9.188;2023-05-14T00:11:37;11.50;1.00
38239;DHT22;24035;48.900;9.188;2023-05-14T00:14:04;11.40;70.00
38239;DHT22;24035;48.900;9.188;2023-05-14T00:16:29;11.40;99.90
38239;DHT22;24035;48.900;9.188;2023-05-14T00:18:55;11.40;99.90
38239;DHT22;24035;48.900;9.188;2023-05-14T00:21:21;11.30;1.00
38239;DHT22;24035;48.900;9.188;2023-05-14T00:23:47;11.30;1.00
38239;DHT22;24035;48.900;9.188;2023-05-14T00:26:12;11.20;1.00
38239;DHT22;24035;48.900;9.188;2023-05-14T00:28:38;11.10;1.00
38239;DHT22;24035;48.900;9.188;2023-05-14T00:31:04;11.00;1.00
38239;DHT22;24035;48.900;9.188;2023-05-14T00:33:30;10.90;20.40
38239;DHT22;24035;48.900;9.188;2023-05-14T00:35:55;10.80;99.90
38239;DHT22;24035;48.900;9.188;2023-05-14T00:38:21;10.70;99.90
38239;DHT22;24035;48.900;9.188;2023-05-14T00:40:48;10.60;1.00
38239;DHT22;24035;48.900;9.188;2023-05-14T00:43:20;10.60;1.00
38239;DHT22;24035;48.900;9.188;2023-05-14T00:45:52;10.50;45.40
38239;DHT22;24035;48.900;9.188;2023-05-14T00:48:19;10.40;99.90
38239;DHT22;24035;48.900;9.188;2023-05-14T00:50:45;10.30;99.90
38239;DHT22;24035;48.900;9.188;2023-05-14T00:53:11;10.30;99.90
38239;DHT22;24035;48.900;9.188;2023-05-14T00:55:38;10.20;99.90
38239;DHT22;24035;48.900;9.188;2023-05-14T00:58:08;10.10;99.90
38239;DHT22;24035;48.900;9.188;2023-05-14T01:00:34;10.10;1.00
38239;DHT22;24035;48.900;9.188;2023-05-14T01:03:01;10.00;99.90
38239;DHT22;24035;48.900;9.188;2023-05-14T01:11:18;9.80;1.00
38239;DHT22;24035;48.900;9.188;2023-05-14T01:16:45;9.60;1.00
38239;DHT22;24035;48.900;9.188;2023-05-14T01:19:28;9.60;46.20
38239;DHT22;24035;48.900;9.188;2023-05-14T01:21:58;9.50;41.70
38239;DHT22;24035;48.900;9.188;2023-05-14T01:24:23;9.50;99.90
38239;DHT22;24035;48.900;9.188;2023-05-14T01:26:49;9.60;1.00
38239;DHT22;24035;48.900;9.188;2023-05-14T01:29:21;9.70;99.90
38239;DHT22;24035;48.900;9.188;2023-05-14T01:31:49;9.70;99.90
38239;DHT22;24035;48.900;9.188;2023-05-14T01:34:19;9.60;1.00
38239;DHT22;24035;48.900;9.188;2023-05-14T01:36:46;9.60;99.90
38239;DHT22;24035;48.900;9.188;2023-05-14T01:39:13;9.60;98.00
38239;DHT22;24035;48.900;9.188;2023-05-14T01:41:41;9.50;35.50
38239;DHT22;24035;48.900;9.188;2023-05-14T01:44:08;9.50;99.90
38239;DHT22;24035;48.900;9.188;2023-05-14T01:46:34;9.40;99.90
38239;DHT22;24035;48.900;9.188;2023-05-14T01:48:59;9.30;1.00
38239;DHT22;24035;48.900;9.188;2023-05-14T01:51:25;9.30;99.90
38239;DHT22;24035;48.900;9.188;2023-05-14T01:53:51;9.40;1.00
38239;DHT22;24035;48.900;9.188;2023-05-14T01:56:18;9.40;1.00
38239;DHT22;24035;48.900;9.188;2023-05-14T01:58:44;9.40;1.00
38239;DHT22;24035;48.900;9.188;2023-05-14T02:01:10;9.30;1.00
38239;DHT22;24035;48.900;9.188;2023-05-14T02:03:35;9.20;1.00
38239;DHT22;24035;48.900;9.188;2023-05-14T02:06:01;9.30;1.00
38239;DHT22;24035;48.900;9.188;2023-05-14T02:08:27;9.30;1.00
38239;DHT22;24035;48.900;9.188;2023-05-14T02:10:52;9.30;76.20
38239;DHT22;24035;48.900;9.188;2023-05-14T02:13:18;9.30;99.90
38239;DHT22;24035;48.900;9.188;2023-05-14T02:15:43;9.30;99.90
38239;DHT22;24035;48.900;9.188;2023-05-14T02:18:09;9.30;99.90
38239;DHT22;24035;48.900;9.188;2023-05-14T02:20:35;9.10;1.00
38239;DHT22;24035;48.900;9.188;2023-05-14T02:23:01;9.10;1.00
38239;DHT22;24035;48.900;9.188;2023-05-14T02:25:26;9.00;1.00
38239;DHT22;24035;48.900;9.188;2023-05-14T02:27:52;8.80;1.00
38239;DHT22;24035;48.900;9.188;2023-05-14T02:30:18;8.70;1.00
38239;DHT22;24035;48.900;9.188;2023-05-14T02:32:43;8.70;1.00
38239;DHT22;24035;48.900;9.188;2023-05-14T02:35:09;8.60;1.00
38239;DHT22;24035;48.900;9.188;2023-05-14T02:37:35;8.60;1.00
38239;DHT22;24035;48.900;9.188;2023-05-14T02:40:00;8.50;1.00
38239;DHT22;24035;48.900;9.188;2023-05-14T02:42:26;8.60;1.00
38239;DHT22;24035;48.900;9.188;2023-05-14T02:44:52;8.60;99.90
38239;DHT22;24035;48.900;9.188;2023-05-14T02:47:18;8.60;51.80
38239;DHT22;24035;48.900;9.188;2023-05-14T02:49:43;8.50;1.00
38239;DHT22;24035;48.900;9.188;2023-05-14T02:52:09;8.50;99.90
38239;DHT22;24035;48.900;9.188;2023-05-14T02:54:35;8.60;99.90
38239;DHT22;24035;48.900;9.188;2023-05-14T02:57:00;8.60;99.90
38239;DHT22;24035;48.900;9.188;2023-05-14T02:59:26;8.70;99.90
38239;DHT22;24035;48.900;9.188;2023-05-14T03:01:53;8.80;1.00
38239;DHT22;24035;48.900;9.188;2023-05-14T03:04:19;8.90;1.00
38239;DHT22;24035;48.900;9.188;2023-05-14T03:06:45;8.90;1.00
38239;DHT22;24035;48.900;9.188;2023-05-14T03:09:10;8.90;1.00
38239;DHT22;24035;48.900;9.188;2023-05-14T03:11:36;9.00;1.00
38239;DHT22;24035;48.900;9.188;2023-05-14T03:14:02;9.00;1.00
38239;DHT22;24035;48.900;9.188;2023-05-14T03:16:27;9.00;1.00
38239;DHT22;24035;48.900;9.188;2023-05-14T03:18:53;9.10;1.00
38239;DHT22;24035;48.900;9.188;2023-05-14T03:21:19;9.10;1.00
38239;DHT22;24035;48.900;9.188;2023-05-14T03:23:45;9.10;1.00
38239;DHT22;24035;48.900;9.188;2023-05-14T03:26:10;9.20;1.00
38239;DHT22;24035;48.900;9.188;2023-05-14T03:28:39;9.20;1.00
38239;DHT22;24035;48.900;9.188;2023-05-14T03:31:05;9.30;1.00
38239;DHT22;24035;48.900;9.188;2023-05-14T03:33:31;9.30;1.00
38239;DHT22;24035;48.900;9.188;2023-05-14T03:35:57;9.30;1.00
38239;DHT22;24035;48.900;9.188;2023-05-14T03:38:22;9.20;99.90
38239;DHT22;24035;48.900;9.188;2023-05-14T03:40:48;9.20;99.90
38239;DHT22;24035;48.900;9.188;2023-05-14T03:43:14;9.30;99.90
38239;DHT22;24035;48.900;9.188;2023-05-14T03:45:40;9.30;99.90
38239;DHT22;24035;48.900;9.188;2023-05-14T03:48:06;9.30;99.90
38239;DHT22;24035;48.900;9.188;2023-05-14T03:50:32;9.40;1.00
38239;DHT22;24035;48.900;9.188;2023-05-14T03:52:58;9.50;1.00
38239;DHT22;24035;48.900;9.188;2023-05-14T03:55:24;9.50;1.00
38239;DHT22;24035;48.900;9.188;2023-05-14T03:57:50;9.60;1.00
38239;DHT22;24035;48.900;9.188;2023-05-14T04:00:16;9.60;1.00
38239;DHT22;24035;48.900;9.188;2023-05-14T04:02:41;9.80;1.00
38239;DHT22;24035;48.900;9.188;2023-05-14T04:05:07;9.80;1.00
38239;DHT22;24035;48.900;9.188;2023-05-14T04:07:33;9.80;99.90
38239;DHT22;24035;48.900;9.188;2023-05-14T04:09:58;9.90;99.90
38239;DHT22;24035;48.900;9.188;2023-05-14T04:12:25;9.80;73.70
38239;DHT22;24035;48.900;9.188;2023-05-14T04:14:51;9.70;1.00
38239;DHT22;24035;48.900;9.188;2023-05-14T04:17:17;9.60;1.00
38239;DHT22;24035;48.900;9.188;2023-05-14T04:19:43;9.70;1.00
38239;DHT22;24035;48.900;9.188;2023-05-14T04:22:08;9.70;1.00
38239;DHT22;24035;48.900;9.188;2023-05-14T04:24:36;9.70;1.00
38239;DHT22;24035;48.900;9.188;2023-05-14T04:27:02;9.80;1.00
38239;DHT22;24035;48.900;9.188;2023-05-14T04:29:28;9.80;1.00
38239;DHT22;24035;48.900;9.188;2023-05-14T04:31:54;9.80;99.90
38239;DHT22;24035;48.900;9.188;2023-05-14T04:34:20;9.90;99.90
38239;DHT22;24035;48.900;9.188;2023-05-14T04:36:46;9.90;99.90
38239;DHT22;24035;48.900;9.188;2023-05-14T04:39:11;10.00;99.90
38239;DHT22;24035;48.900;9.188;2023-05-14T04:41:38;10.10;6.30
38239;DHT22;24035;48.900;9.188;2023-05-14T04:44:03;10.10;1.00
38239;DHT22;24035;48.900;9.188;2023-05-14T04:46:29;10.10;1.00
38239;DHT22;24035;48.900;9.188;2023-05-14T04:48:55;10.10;1.00
38239;DHT22;24035;48.900;9.188;2023-05-14T04:51:21;10.20;1.00
38239;DHT22;24035;48.900;9.188;2023-05-14T04:53:47;10.30;1.00
38239;DHT22;24035;48.900;9.188;2023-05-14T04:56:13;10.30;99.90
38239;DHT22;24035;48.900;9.188;2023-05-14T04:58:39;10.30;1.00
38239;DHT22;24035;48.900;9.188;2023-05-14T05:01:05;10.20;99.90
38239;DHT22;24035;48.900;9.188;2023-05-14T05:03:31;10.30;99.90
38239;DHT22;24035;48.900;9.188;2023-05-14T05:05:57;10.40;99.90
38239;DHT22;24035;48.900;9.188;2023-05-14T05:08:22;10.40;1.00
38239;DHT22;24035;48.900;9.188;2023-05-14T05:10:48;10.40;1.00
38239;DHT22;24035;48.900;9.188;2023-05-14T05:13:14;10.30;1.00
38239;DHT22;24035;48.900;9.188;2023-05-14T05:15:42;10.50;99.90
38239;DHT22;24035;48.900;9.188;2023-05-14T05:18:08;10.60;1.00
38239;DHT22;24035;48.900;9.188;2023-05-14T05:20:33;10.60;1.00
38239;DHT22;24035;48.900;9.188;2023-05-14T05:22:59;10.60;99.90
38239;DHT22;24035;48.900;9.188;2023-05-14T05:25:25;10.70;1.00
38239;DHT22;24035;48.900;9.188;2023-05-14T05:27:51;10.90;99.90
38239;DHT22;24035;48.900;9.188;2023-05-14T05:30:17;10.90;1.00
38239;DHT22;24035;48.900;9.188;2023-05-14T05:32:43;10.90;1.00
38239;DHT22;24035;48.900;9.188;2023-05-14T05:35:08;11.00;1.00
38239;DHT22;24035;48.900;9.188;2023-05-14T05:37:34;11.00;1.00
38239;DHT22;24035;48.900;9.188;2023-05-14T05:40:00;11.20;99.90
38239;DHT22;24035;48.900;9.188;2023-05-14T05:42:26;11.30;99.90
38239;DHT22;24035;48.900;9.188;2023-05-14T05:44:51;11.40;1.00
38239;DHT22;24035;48.900;9.188;2023-05-14T05:47:17;11.40;1.00
38239;DHT22;24035;48.900;9.188;2023-05-14T05:49:43;11.60;1.00
38239;DHT22;24035;48.900;9.188;2023-05-14T05:52:09;11.60;72.90
38239;DHT22;24035;48.900;9.188;2023-05-14T05:54:34;11.50;47.00
38239;DHT22;24035;48.900;9.188;2023-05-14T05:57:00;11.60;1.00
38239;DHT22;24035;48.900;9.188;2023-05-14T05:59:26;11.60;1.00
38239;DHT22;24035;48.900;9.188;2023-05-14T06:01:52;11.60;1.00
38239;DHT22;24035;48.900;9.188;2023-05-14T06:04:17;11.70;1.00
38239;DHT22;24035;48.900;9.188;2023-05-14T06:06:43;11.90;1.00
38239;DHT22;24035;48.900;9.188;2023-05-14T06:09:09;11.90;83.50
38239;DHT22;24035;48.900;9.188;2023-05-14T06:11:35;12.10;99.90
38239;DHT22;24035;48.900;9.188;2023-05-14T06:14:00;12.00;51.40
38239;DHT22;24035;48.900;9.188;2023-05-14T06:16:26;11.90;86.90
38239;DHT22;24035;48.900;9.188;2023-05-14T06:18:53;12.10;99.90
38239;DHT22;24035;48.900;9.188;2023-05-14T06:21:19;12.20;5.80
38239;DHT22;24035;48.900;9.188;2023-05-14T06:23:46;12.50;76.80
38239;DHT22;24035;48.900;9.188;2023-05-14T06:26:11;12.60;1.00
38239;DHT22;24035;48.900;9.188;2023-05-14T06:28:37;12.60;1.00
38239;DHT22;24035;48.900;9.188;2023-05-14T06:31:03;12.90;99.90
38239;DHT22;24035;48.900;9.188;2023-05-14T06:33:29;13.20;99.90
38239;DHT22;24035;48.900;9.188;2023-05-14T06:35:57;13.60;72.70
38239;DHT22;24035;48.900;9.188;2023-05-14T06:38:23;13.70;1.00
38239;DHT22;24035;48.900;9.188;2023-05-14T06:40:49;13.70;1.00
38239;DHT22;24035;48.900;9.188;2023-05-14T06:43:15;13.30;1.00
38239;DHT22;24035;48.900;9.188;2023-05-14T06:45:40;13.00;99.90
38239;DHT22;24035;48.900;9.188;2023-05-14T06:48:06;13.20;99.90
38239;DHT22;24035;48.900;9.188;2023-05-14T06:50:34;13.40;99.90
38239;DHT22;24035;48.900;9.188;2023-05-14T06:53:00;13.50;99.90
38239;DHT22;24035;48.900;9.188;2023-05-14T06:55:26;13.60;1.00
38239;DHT22;24035;48.900;9.188;2023-05-14T06:57:52;13.70;1.00
38239;DHT22;24035;48.900;9.188;2023-05-14T07:00:18;13.90;1.00
38239;DHT22;24035;48.900;9.188;2023-05-14T07:02:44;14.10;1.00
38239;DHT22;24035;48.900;9.188;2023-05-14T07:05:10;13.80;1.00
38239;DHT22;24035;48.900;9.188;2023-05-14T07:07:35;13.70;1.00
38239;DHT22;24035;48.900;9.188;2023-05-14T07:10:01;14.00;1.00
38239;DHT22;24035;48.900;9.188;2023-05-14T07:12:27;14.80;1.00
38239;DHT22;24035;48.900;9.188;2023-05-14T07:14:53;15.00;99.90
38239;DHT22;24035;48.900;9.188;2023-05-14T07:17:19;15.40;99.90
38239;DHT22;24035;48.900;9.188;2023-05-14T07:19:44;15.10;99.90
38239;DHT22;24035;48.900;9.188;2023-05-14T07:22:11;15.70;99.90
38239;DHT22;24035;48.900;9.188;2023-05-14T07:24:37;17.10;1.00
38239;DHT22;24035;48.900;9.188;2023-05-14T07:27:03;18.30;1.00
38239;DHT22;24035;48.900;9.188;2023-05-14T07:29:29;18.10;99.90
38239;DHT22;24035;48.900;9.188;2023-05-14T07:31:55;17.00;1.00
38239;DHT22;24035;48.900;9.188;2023-05-14T07:34:20;17.20;1.00
38239;DHT22;24035;48.900;9.188;2023-05-14T07:36:46;18.40;1.00
38239;DHT22;24035;48.900;9.188;2023-05-14T07:39:12;20.50;99.90
38239;DHT22;24035;48.900;9.188;2023-05-14T07:41:38;22.20;99.90
38239;DHT22;24035;48.900;9.188;2023-05-14T07:44:03;23.30;99.90
38239;DHT22;24035;48.900;9.188;2023-05-14T07:46:29;23.80;99.90
38239;DHT22;24035;48.900;9.188;2023-05-14T07:48:55;24.70;99.90
38239;DHT22;24035;48.900;9.188;2023-05-14T07:51:20;25.00;99.90
38239;DHT22;24035;48.900;9.188;2023-05-14T07:53:46;24.20;99.90
38239;DHT22;24035;48.900;9.188;2023-05-14T07:56:12;23.10;99.90
38239;DHT22;24035;48.900;9.188;2023-05-14T07:58:37;22.00;99.90
38239;DHT22;24035;48.900;9.188;2023-05-14T08:01:03;21.00;99.90
38239;DHT22;24035;48.900;9.188;2023-05-14T08:03:31;20.10;99.90
38239;DHT22;24035;48.900;9.188;2023-05-14T08:05:58;18.40;99.90
38239;DHT22;24035;48.900;9.188;2023-05-14T08:08:23;17.50;1.00
38239;DHT22;24035;48.900;9.188;2023-05-14T08:10:49;16.70;1.00
38239;DHT22;24035;48.900;9.188;2023-05-14T08:13:15;16.10;1.00
38239;DHT22;24035;48.900;9.188;2023-05-14T08:15:41;16.20;1.00
38239;DHT22;24035;48.900;9.188;2023-05-14T08:18:06;16.30;1.00
38239;DHT22;24035;48.900;9.188;2023-05-14T08:20:32;16.40;1.00
38239;DHT22;24035;48.900;9.188;2023-05-14T08:22:58;16.70;1.00
38239;DHT22;24035;48.900;9.188;2023-05-14T08:25:24;16.50;1.00
38239;DHT22;24035;48.900;9.188;2023-05-14T08:27:49;16.40;1.00
38239;DHT22;24035;48.900;9.188;2023-05-14T08:30:15;16.80;1.00
38239;DHT22;24035;48.900;9.188;2023-05-14T08:32:42;17.60;1.00
38239;DHT22;24035;48.900;9.188;2023-05-14T08:35:08;17.80;1.00
38239;DHT22;24035;48.900;9.188;2023-05-14T08:37:34;18.10;1.00
38239;DHT22;24035;48.900;9.188;2023-05-14T08:39:59;18.30;1.00
38239;DHT22;24035;48.900;9.188;2023-05-14T08:42:25;19.00;99.90
38239;DHT22;24035;48.900;9.188;2023-05-14T08:44:59;18.20;99.90
38239;DHT22;24035;48.900;9.188;2023-05-14T08:47:28;17.80;1.00
38239;DHT22;24035;48.900;9.188;2023-05-14T08:50:01;18.60;1.00
38239;DHT22;24035;48.900;9.188;2023-05-14T08:52:31;18.40;99.90
38239;DHT22;24035;48.900;9.188;2023-05-14T08:54:59;17.30;1.00
38239;DHT22;24035;48.900;9.188;2023-05-14T08:57:27;17.00;1.00
38239;DHT22;24035;48.900;9.188;2023-05-14T08:59:54;18.20;1.00
38239;DHT22;24035;48.900;9.188;2023-05-14T09:02:30;18.60;99.90
38239;DHT22;24035;48.900;9.188;2023-05-14T09:04:57;18.40;99.90
38239;DHT22;24035;48.900;9.188;2023-05-14T09:07:23;18.30;99.90
38239;DHT22;24035;48.900;9.188;2023-05-14T09:09:50;18.60;99.90
38239;DHT22;24035;48.900;9.188;2023-05-14T09:12:17;19.60;99.90
38239;DHT22;24035;48.900;9.188;2023-05-14T09:14:43;21.00;99.90
38239;DHT22;24035;48.900;9.188;2023-05-14T09:17:09;21.70;99.90
38239;DHT22;24035;48.900;9.188;2023-05-14T09:19:41;20.90;99.90
38239;DHT22;24035;48.900;9.188;2023-05-14T09:22:15;19.80;99.90
38239;DHT22;24035;48.900;9.188;2023-05-14T09:24:41;19.30;99.90
38239;DHT22;24035;48.900;9.188;2023-05-14T09:27:08;18.40;99.90
38239;DHT22;24035;48.900;9.188;2023-05-14T09:29:34;18.00;1.00
38239;DHT22;24035;48.900;9.188;2023-05-14T09:32:00;18.80;99.90
38239;DHT22;24035;48.900;9.188;2023-05-14T09:34:33;19.60;99.90
38239;DHT22;24035;48.900;9.188;2023-05-14T09:37:07;20.60;99.90
38239;DHT22;24035;48.900;9.188;2023-05-14T09:39:35;22.20;99.90
38239;DHT22;24035;48.900;9.188;2023-05-14T09:42:01;23.30;99.90
38239;DHT22;24035;48.900;9.188;2023-05-14T09:44:27;23.10;99.90
38239;DHT22;24035;48.900;9.188;2023-05-14T09:46:53;22.20;99.90
38239;DHT22;24035;48.900;9.188;2023-05-14T09:49:19;21.20;99.90
38239;DHT22;24035;48.900;9.188;2023-05-14T09:51:45;20.80;99.90
38239;DHT22;24035;48.900;9.188;2023-05-14T09:54:10;20.40;99.90
38239;DHT22;24035;48.900;9.188;2023-05-14T09:56:37;20.20;99.90
38239;DHT22;24035;48.900;9.188;2023-05-14T09:59:04;20.30;99.90
38239;DHT22;24035;48.900;9.188;2023-05-14T10:01:31;19.90;99.90
38239;DHT22;24035;48.900;9.188;2023-05-14T10:04:02;18.70;99.90
38239;DHT22;24035;48.900;9.188;2023-05-14T10:06:32;18.20;99.90
38239;DHT22;24035;48.900;9.188;2023-05-14T10:09:03;17.90;1.00
38239;DHT22;24035;48.900;9.188;2023-05-14T10:11:36;17.20;1.00
38239;DHT22;24035;48.900;9.188;2023-05-14T10:14:19;17.10;1.00
38239;DHT22;24035;48.900;9.188;2023-05-14T10:16:52;17.20;1.00
38239;DHT22;24035;48.900;9.188;2023-05-14T10:19:20;17.00;1.00
38239;DHT22;24035;48.900;9.188;2023-05-14T10:21:52;17.00;1.00
38239;DHT22;24035;48.900;9.188;2023-05-14T10:24:20;17.00;1.00
38239;DHT22;24035;48.900;9.188;2023-05-14T10:26:46;17.10;1.00
38239;DHT22;24035;48.900;9.188;2023-05-14T10:29:12;17.70;1.00
38239;DHT22;24035;48.900;9.188;2023-05-14T10:31:49;17.40;1.00
38239;DHT22;24035;48.900;9.188;2023-05-14T10:34:37;17.20;1.00
38239;DHT22;24035;48.900;9.188;2023-05-14T10:37:15;17.70;1.00
38239;DHT22;24035;48.900;9.188;2023-05-14T10:42:21;17.70;1.00
38239;DHT22;24035;48.900;9.188;2023-05-14T10:44:53;17.60;1.00
38239;DHT22;24035;48.900;9.188;2023-05-14T10:47:20;17.80;1.00
38239;DHT22;24035;48.900;9.188;2023-05-14T10:49:46;18.40;1.00
38239;DHT22;24035;48.900;9.188;2023-05-14T10:52:16;18.50;1.00
38239;DHT22;24035;48.900;9.188;2023-05-14T10:55:03;18.60;99.90
38239;DHT22;24035;48.900;9.188;2023-05-14T10:57:33;19.00;1.00
38239;DHT22;24035;48.900;9.188;2023-05-14T10:59:59;18.90;99.90
38239;DHT22;24035;48.900;9.188;2023-05-14T11:07:39;19.80;99.90
38239;DHT22;24035;48.900;9.188;2023-05-14T11:10:09;19.70;99.90
38239;DHT22;24035;48.900;9.188;2023-05-14T11:12:40;18.90;99.90
38239;DHT22;24035;48.900;9.188;2023-05-14T11:15:08;18.70;99.90
38239;DHT22;24035;48.900;9.188;2023-05-14T11:17:35;18.80;99.90
38239;DHT22;24035;48.900;9.188;2023-05-14T11:20:01;18.90;99.90
38239;DHT22;24035;48.900;9.188;2023-05-14T11:22:27;19.10;99.90
38239;DHT22;24035;48.900;9.188;2023-05-14T11:24:53;18.80;99.90
38239;DHT22;24035;48.900;9.188;2023-05-14T11:27:20;18.60;99.90
38239;DHT22;24035;48.900;9.188;2023-05-14T11:29:47;19.00;99.90
38239;DHT22;24035;48.900;9.188;2023-05-14T11:32:14;19.10;99.90
38239;DHT22;24035;48.900;9.188;2023-05-14T11:34:41;19.80;99.90
38239;DHT22;24035;48.900;9.188;2023-05-14T11:37:08;20.10;99.90
38239;DHT22;24035;48.900;9.188;2023-05-14T11:39:35;20.10;99.90
38239;DHT22;24035;48.900;9.188;2023-05-14T11:42:03;19.00;99.90
38239;DHT22;24035;48.900;9.188;2023-05-14T11:44:33;18.80;99.90
38239;DHT22;24035;48.900;9.188;2023-05-14T11:46:58;19.00;99.90
38239;DHT22;24035;48.900;9.188;2023-05-14T11:49:27;19.20;99.90
38239;DHT22;24035;48.900;9.188;2023-05-14T11:52:12;19.30;99.90
38239;DHT22;24035;48.900;9.188;2023-05-14T11:54:40;19.10;99.90
38239;DHT22;24035;48.900;9.188;2023-05-14T11:57:11;18.80;99.90
38239;DHT22;24035;48.900;9.188;2023-05-14T11:59:38;19.10;99.90
38239;DHT22;24035;48.900;9.188;2023-05-14T12:02:07;18.70;99.90
38239;DHT22;24035;48.900;9.188;2023-05-14T12:04:34;19.00;99.90
38239;DHT22;24035;48.900;9.188;2023-05-14T12:07:13;19.20;99.90
38239;DHT22;24035;48.900;9.188;2023-05-14T12:09:42;19.50;99.90
38239;DHT22;24035;48.900;9.188;2023-05-14T12:12:14;19.10;99.90
38239;DHT22;24035;48.900;9.188;2023-05-14T12:14:41;19.00;99.90
38239;DHT22;24035;48.900;9.188;2023-05-14T12:17:15;19.60;99.90
38239;DHT22;24035;48.900;9.188;2023-05-14T12:19:43;20.10;99.90
38239;DHT22;24035;48.900;9.188;2023-05-14T12:22:10;20.20;99.90
38239;DHT22;24035;48.900;9.188;2023-05-14T12:24:36;20.10;99.90
38239;DHT22;24035;48.900;9.188;2023-05-14T12:27:02;19.90;99.90
38239;DHT22;24035;48.900;9.188;2023-05-14T12:29:28;19.40;99.90
38239;DHT22;24035;48.900;9.188;2023-05-14T12:31:56;19.30;99.90
38239;DHT22;24035;48.900;9.188;2023-05-14T12:34:22;18.70;99.90
38239;DHT22;24035;48.900;9.188;2023-05-14T12:36:48;19.00;99.90
38239;DHT22;24035;48.900;9.188;2023-05-14T12:39:14;19.30;99.90
38239;DHT22;24035;48.900;9.188;2023-05-14T12:41:40;19.40;99.90
38239;DHT22;24035;48.900;9.188;2023-05-14T12:44:05;19.50;99.90
38239;DHT22;24035;48.900;9.188;2023-05-14T12:46:32;19.50;99.90
38239;DHT22;24035;48.900;9.188;2023-05-14T12:48:58;19.00;99.90
38239;DHT22;24035;48.900;9.188;2023-05-14T12:51:24;18.30;99.90
38239;DHT22;24035;48.900;9.188;2023-05-14T12:53:49;18.00;99.90
38239;DHT22;24035;48.900;9.188;2023-05-14T12:56:16;18.50;99.90
38239;DHT22;24035;48.900;9.188;2023-05-14T12:58:42;18.90;99.90
38239;DHT22;24035;48.900;9.188;2023-05-14T13:01:08;19.10;99.90
38239;DHT22;24035;48.900;9.188;2023-05-14T13:03:33;18.80;99.90
38239;DHT22;24035;48.900;9.188;2023-05-14T13:05:59;18.70;99.90
38239;DHT22;24035;48.900;9.188;2023-05-14T13:08:25;18.80;99.90
38239;DHT22;24035;48.900;9.188;2023-05-14T13:10:55;19.10;99.90
38239;DHT22;24035;48.900;9.188;2023-05-14T13:13:21;19.20;99.90
38239;DHT22;24035;48.900;9.188;2023-05-14T13:15:47;19.10;99.90
38239;DHT22;24035;48.900;9.188;2023-05-14T13:18:14;19.00;99.90
38239;DHT22;24035;48.900;9.188;2023-05-14T13:20:40;18.70;99.90
38239;DHT22;24035;48.900;9.188;2023-05-14T13:23:06;18.40;99.90
38239;DHT22;24035;48.900;9.188;2023-05-14T13:25:33;18.50;99.90
38239;DHT22;24035;48.900;9.188;2023-05-14T13:27:59;18.60;99.90
38239;DHT22;24035;48.900;9.188;2023-05-14T13:30:25;18.50;99.90
38239;DHT22;24035;48.900;9.188;2023-05-14T13:32:51;18.40;99.90
38239;DHT22;24035;48.900;9.188;2023-05-14T13:35:17;18.50;99.90
38239;DHT22;24035;48.900;9.188;2023-05-14T13:37:43;18.80;99.90
38239;DHT22;24035;48.900;9.188;2023-05-14T13:40:09;18.70;99.90
38239;DHT22;24035;48.900;9.188;2023-05-14T13:42:35;18.50;99.90
38239;DHT22;24035;48.900;9.188;2023-05-14T13:45:01;18.30;99.90
38239;DHT22;24035;48.900;9.188;2023-05-14T13:47:28;17.90;99.90
38239;DHT22;24035;48.900;9.188;2023-05-14T13:49:54;18.20;99.90
38239;DHT22;24035;48.900;9.188;2023-05-14T13:52:21;18.30;99.90
38239;DHT22;24035;48.900;9.188;2023-05-14T13:54:47;18.40;99.90
38239;DHT22;24035;48.900;9.188;2023-05-14T13:57:13;18.40;99.90
38239;DHT22;24035;48.900;9.188;2023-05-14T13:59:39;18.60;99.90
38239;DHT22;24035;48.900;9.188;2023-05-14T14:02:05;18.90;99.90
38239;DHT22;24035;48.900;9.188;2023-05-14T14:04:30;18.90;99.90
38239;DHT22;24035;48.900;9.188;2023-05-14T14:06:56;18.90;99.90
38239;DHT22;24035;48.900;9.188;2023-05-14T14:09:22;18.70;99.90
38239;DHT22;24035;48.900;9.188;2023-05-14T14:11:49;18.50;99.90
38239;DHT22;24035;48.900;9.188;2023-05-14T14:14:15;18.60;99.90
38239;DHT22;24035;48.900;9.188;2023-05-14T14:16:41;18.60;99.90
38239;DHT22;24035;48.900;9.188;2023-05-14T14:19:07;18.50;99.90
38239;DHT22;24035;48.900;9.188;2023-05-14T14:21:34;18.40;99.90
38239;DHT22;24035;48.900;9.188;2023-05-14T14:24:00;18.20;99.90
38239;DHT22;24035;48.900;9.188;2023-05-14T14:26:26;18.20;99.90
38239;DHT22;24035;48.900;9.188;2023-05-14T14:28:52;18.20;99.90
38239;DHT22;24035;48.900;9.188;2023-05-14T14:31:19;18.50;99.90
38239;DHT22;24035;48.900;9.188;2023-05-14T14:33:45;18.70;99.90
38239;DHT22;24035;48.900;9.188;2023-05-14T14:36:11;18.80;99.90
38239;DHT22;24035;48.900;9.188;2023-05-14T14:38:37;19.00;99.90
38239;DHT22;24035;48.900;9.188;2023-05-14T14:41:04;18.80;99.90
38239;DHT22;24035;48.900;9.188;2023-05-14T14:43:35;18.90;99.90
38239;DHT22;24035;48.900;9.188;2023-05-14T14:46:01;18.80;99.90
38239;DHT22;24035;48.900;9.188;2023-05-14T14:48:31;18.80;99.90
38239;DHT22;24035;48.900;9.188;2023-05-14T14:51:07;19.50;99.90
38239;DHT22;24035;48.900;9.188;2023-05-14T14:53:34;19.80;99.90
38239;DHT22;24035;48.900;9.188;2023-05-14T14:56:01;20.10;99.90
38239;DHT22;24035;48.900;9.188;2023-05-14T14:58:27;21.00;99.90
38239;DHT22;24035;48.900;9.188;2023-05-14T15:00:54;21.50;99.90
38239;DHT22;24035;48.900;9.188;2023-05-14T15:03:20;21.60;99.90
38239;DHT22;24035;48.900;9.188;2023-05-14T15:05:47;21.30;99.90
38239;DHT22;24035;48.900;9.188;2023-05-14T15:08:13;22.20;99.90
38239;DHT22;24035;48.900;9.188;2023-05-14T15:10:38;22.50;99.90
38239;DHT22;24035;48.900;9.188;2023-05-14T15:13:06;22.10;99.90
38239;DHT22;24035;48.900;9.188;2023-05-14T15:15:33;22.20;99.90
38239;DHT22;24035;48.900;9.188;2023-05-14T15:17:59;23.30;99.90
38239;DHT22;24035;48.900;9.188;2023-05-14T15:20:25;24.20;99.90
38239;DHT22;24035;48.900;9.188;2023-05-14T15:22:51;23.80;99.90
38239;DHT22;24035;48.900;9.188;2023-05-14T15:25:19;23.00;99.90
38239;DHT22;24035;48.900;9.188;2023-05-14T15:27:44;22.20;99.90
38239;DHT22;24035;48.900;9.188;2023-05-14T15:30:11;20.50;99.90
38239;DHT22;24035;48.900;9.188;2023-05-14T15:32:37;19.80;99.90
38239;DHT22;24035;48.900;9.188;2023-05-14T15:35:03;19.60;99.90
38239;DHT22;24035;48.900;9.188;2023-05-14T15:37:36;20.50;99.90
38239;DHT22;24035;48.900;9.188;2023-05-14T15:40:03;20.50;99.90
38239;DHT22;24035;48.900;9.188;2023-05-14T15:42:29;20.10;99.90
38239;DHT22;24035;48.900;9.188;2023-05-14T15:44:55;20.20;99.90
38239;DHT22;24035;48.900;9.188;2023-05-14T15:47:20;20.00;99.90
38239;DHT22;24035;48.900;9.188;2023-05-14T15:49:46;20.00;99.90
38239;DHT22;24035;48.900;9.188;2023-05-14T15:52:12;20.20;99.90
38239;DHT22;24035;48.900;9.188;2023-05-14T15:54:38;20.30;99.90